Terminal Aerodrome Forecast
Issued by NWS Quad Cities IA IL

Home | Current Version | Previous Version | Graphics & Text | Print | Product List | Glossary On
Versions: 1 2 3 4 5 6 7 8 9 10 11 12 13 14 15 16 17 18 19 20 21
000
FTUS43 KDVN 211100 RRA
TAFMLI
TAF
KMLI 211147Z 2112/2212 VRB03KT P6SM FEW070 BKN250
     FM211800 20008KT P6SM VCTS FEW070CB SCT250
     FM220400 17005KT P6SM VCTS SCT050CB BKN200=

USA.gov is the U.S. government's official web portal to all federal, state and local government web resources and services.